Terminal Aerodrome Forecast
Issued by NWS Jackson, MS

Home | Current Version | Previous Version | Text Only | Print | Product List | Glossary On
Versions: 1 2 3 4 5 6 7 8 9 10 11 12 13
000
FTUS44 KJAN 240524
TAFGWO
TAF
KGWO 240524Z 2406/2506 14009KT P6SM SCT060 BKN250
     FM241400 15015G21KT P6SM BKN025
     FM241600 15016G23KT P6SM BKN035
     FM241800 15018G24KT P6SM VCTS SCT040CB BKN250
     FM250200 14014G21KT 1SM +TSRA BR OVC025CB
     FM250400 15013KT P6SM -RA OVC050=

USA.gov is the U.S. government's official web portal to all federal, state and local government web resources and services.